Flight Track Log - Related Links

Times and Time Zones

All times are in EDT time to prevent confusion due to time zone crossing. See the SKW5631 flight status page for this flight to view local times or setup timezone preferences in your user account.

Time Position Orientation Groundspeed Altitude Reporting Facility
EDT Latitude Longitude Course Direction KTS MPH feet Rate Location/Type
Sun 09:11:20 PM 37.6594 -122.3683 136° Southeast 186 214 2,500  Level Oakland Center
Sun 09:12:22 PM 37.6644 -122.4239 277° West 226 260 4,600 2,439 Climbing Oakland Center
Sun 09:13:23 PM 37.5933 -122.4297 184° South 261 300 7,500 2,780 Climbing Oakland Center
Sun 09:14:25 PM 37.5311 -122.3650 140° Southeast 288 331 10,300 2,439 Climbing Oakland Center
Sun 09:15:26 PM 37.4622 -122.2911 140° Southeast 321 369 12,500 2,410 Climbing Oakland Center
Sun 09:16:00 PM 37.3240 -122.1954 136° Southeast  Level FlightAware Approximate
Sun 09:16:27 PM 37.3894 -122.2136 140° Southeast 340 391 15,200  Level Oakland Center
Sun 09:17:29 PM 37.3150 -122.1342 140° Southeast 349 402 17,600 2,195 Climbing Oakland Center
Sun 09:18:30 PM 37.2364 -122.0519 140° Southeast 365 420 19,700 2,066 Climbing Oakland Center
Sun 09:19:31 PM 37.1561 -121.9669 140° Southeast 376 433 21,800 2,146 Climbing Oakland Center
Sun 09:20:33 PM 37.0569 -121.8644 140° Southeast 385 443 24,100 2,000 Climbing Oakland Center
Sun 09:21:34 PM 36.9700 -121.7772 141° Southeast 400 460 25,900 1,574 Climbing Oakland Center
Sun 09:22:35 PM 36.8839 -121.6872 140° Southeast 405 466 27,300 1,268 Climbing Oakland Center
Sun 09:23:37 PM 36.7981 -121.5992 141° Southeast 415 478 28,500 1,268 Climbing Oakland Center
Sun 09:24:38 PM 36.7078 -121.5039 140° Southeast 424 488 29,900 1,328 Climbing Oakland Center
Sun 09:25:39 PM 36.6144 -121.4094 141° Southeast 430 495 31,200 1,366 Climbing Oakland Center
Sun 09:26:41 PM 36.5247 -121.3136 139° Southeast 430 495 32,700 878 Climbing Oakland Center
Sun 09:27:42 PM 36.4128 -121.1981 140° Southeast 435 501 33,000 148 Climbing Oakland Center
Sun 09:28:43 PM 36.3131 -121.0967 141° Southeast 460 529 33,000  Level Oakland Center
Sun 09:29:45 PM 36.2119 -120.9922 140° Southeast 467 537 33,000  Level Oakland Center
Sun 09:30:46 PM 36.1094 -120.8892 141° Southeast 474 545 33,000  Level Oakland Center
Sun 09:31:47 PM 36.0086 -120.7850 140° Southeast 475 547 33,000  Level Oakland Center
Sun 09:32:48 PM 35.9094 -120.6819 140° Southeast 469 540 33,000  Level Oakland Center
Sun 09:33:50 PM 35.8097 -120.5811 141° Southeast 467 537 33,000  Level Oakland Center
Sun 09:34:51 PM 35.7111 -120.4825 141° Southeast 460 529 33,000  Level Oakland Center
Sun 09:36:00 PM 35.6003 -120.3714 141° Southeast 452 520 33,000 -412 Level Los Angeles Center
Sun 09:37:02 PM 35.5019 -120.2731 141° Southeast 452 520 32,100 -1,306 Descending Los Angeles Center
Sun 09:38:04 PM 35.3822 -120.1533 141° Southeast 462 532 30,300 -1,548 Descending Los Angeles Center
Sun 09:39:06 PM 35.2897 -120.0597 140° Southeast 467 537 28,900 -1,403 Descending Los Angeles Center
Sun 09:40:08 PM 35.1917 -119.9631 141° Southeast 455 524 27,400 -1,452 Descending Los Angeles Center
Sun 09:41:10 PM 35.0969 -119.8692 141° Southeast 441 507 25,900 -1,597 Descending Los Angeles Center
Sun 09:42:12 PM 34.9975 -119.7347 132° Southeast 442 509 24,100 -1,742 Descending Los Angeles Center
Sun 09:43:14 PM 34.9128 -119.6208 132° Southeast 449 517 22,300 -1,790 Descending Los Angeles Center
Sun 09:44:16 PM 34.8294 -119.5089 132° Southeast 449 517 20,400 -2,081 Descending Los Angeles Center
Sun 09:45:18 PM 34.7483 -119.3994 132° Southeast 442 509 18,000 -2,274 Descending Los Angeles Center
Sun 09:46:20 PM 34.6672 -119.2908 132° Southeast 438 504 15,700 -2,323 Descending Los Angeles Center
Sun 09:47:22 PM 34.5869 -119.1672 128° Southeast 417 480 13,200 -2,208 Descending Los Angeles Center
Sun 09:48:25 PM 34.5278 -119.0519 122° Southeast 406 467 11,100 -1,248 Descending Los Angeles Center
Sun 09:49:27 PM 34.4589 -118.9725 136° Southeast 333 383 10,600 -1,065 Descending Los Angeles Center
Sun 09:50:29 PM 34.3867 -118.9189 149° Southeast 305 351 8,900 -1,645 Descending Los Angeles Center
Sun 09:51:31 PM 34.3450 -118.8306 120° Southeast 299 344 7,200 -1,548 Descending Los Angeles Center
Sun 09:52:33 PM 34.3017 -118.7322 118° Southeast 277 319 5,700 -1,210 Descending Los Angeles Center
Sun 09:53:35 PM 34.2664 -118.6492 117° Southeast 277 319 4,700 -968 Descending Los Angeles Center
Sun 09:54:37 PM 34.2356 -118.5747 117° Southeast 265 305 3,700 -774 Descending Los Angeles Center
Sun 09:55:39 PM 34.2106 -118.5153 117° Southeast 228 262 3,100 -634 Descending Los Angeles Center
Sun 09:56:40 PM 34.2000 -118.4581 103° East 199 229 2,400 -780 Descending Los Angeles Center
Sun 09:57:42 PM 34.1992 -118.4117 91° East 162 186 1,500 -726 Descending Los Angeles Center
Sun 09:58:44 PM 34.1989 -118.3644 90° East 149 171 900 -581 Descending Los Angeles Center
Sun 10:00:00 PM 34.2000 -118.3500 90° East  Level FlightAware Approximate

Login

Don't have an account? Register now (free) for customized features, flight alerts, and more!